Time;durP1;ratioP1;P1;durP2;ratioP2;P2;SDS_P1;SDS_P2;PMS_P1;PMS_P2;Temp;Humidity;BMP_temperature;BMP_pressure;BME280_temperature;BME280_humidity;BME280_pressure;Samples;Min_cycle;Max_cycle;Signal;HPM_P1;HPM_P2
2021/04/24 00:00:49;;;;;;;10.70;6.40;;;6.70;99.90;;;;;;5020555;28;20593;-77
2021/04/24 00:03:15;;;;;;;10.40;6.00;;;6.70;99.90;;;;;;5024072;28;20272;-77
2021/04/24 00:05:45;;;;;;;12.73;6.93;;;6.60;99.90;;;;;;5041203;28;20201;-77
2021/04/24 00:08:15;;;;;;;12.47;5.90;;;6.70;99.90;;;;;;5040854;28;20251;-77
2021/04/24 00:10:45;;;;;;;9.30;5.80;;;6.70;99.90;;;;;;5026386;28;20214;-77
2021/04/24 00:13:13;;;;;;;14.50;7.10;;;6.70;99.90;;;;;;5021668;28;20195;-77
2021/04/24 00:15:40;;;;;;;13.33;7.70;;;6.70;99.90;;;;;;5021388;28;20297;-76
2021/04/24 00:18:09;;;;;;;13.27;7.03;;;6.60;99.90;;;;;;5022062;28;20268;-77
2021/04/24 00:20:36;;;;;;;17.47;8.40;;;6.60;99.90;;;;;;5021491;28;20273;-77
2021/04/24 00:23:03;;;;;;;10.20;6.70;;;6.60;99.90;;;;;;5021354;28;20285;-76
2021/04/24 00:25:30;;;;;;;14.70;7.67;;;6.60;99.90;;;;;;5021980;28;20202;-77
2021/04/24 00:27:57;;;;;;;11.43;6.80;;;6.50;99.90;;;;;;5021725;28;20233;-77
2021/04/24 00:30:23;;;;;;;11.03;6.93;;;6.50;99.90;;;;;;5021500;28;20202;-79
2021/04/24 00:32:50;;;;;;;12.23;8.00;;;6.50;99.90;;;;;;5020509;28;20234;-78
2021/04/24 00:35:19;;;;;;;12.23;6.80;;;6.50;99.90;;;;;;5020767;28;20529;-77
2021/04/24 00:37:46;;;;;;;14.83;7.83;;;6.40;99.90;;;;;;5021473;28;20671;-78
2021/04/24 00:40:13;;;;;;;13.93;8.20;;;6.50;99.90;;;;;;5021734;28;20548;-75
2021/04/24 00:42:40;;;;;;;12.73;7.53;;;6.50;99.90;;;;;;5021211;28;20199;-77
2021/04/24 00:45:10;;;;;;;16.33;8.77;;;6.50;99.90;;;;;;5021054;28;20210;-78
2021/04/24 00:47:36;;;;;;;14.83;7.67;;;6.40;99.90;;;;;;5020989;28;20207;-76
2021/04/24 00:50:07;;;;;;;11.40;7.77;;;6.40;99.90;;;;;;5023843;28;20275;-78
2021/04/24 00:52:34;;;;;;;13.13;7.73;;;6.40;99.90;;;;;;5024673;28;20194;-77
2021/04/24 00:55:00;;;;;;;15.93;8.27;;;6.40;99.90;;;;;;5024779;28;20213;-78
2021/04/24 00:57:28;;;;;;;10.93;7.50;;;6.40;99.90;;;;;;5024119;28;20198;-78
2021/04/24 00:59:55;;;;;;;11.13;6.87;;;6.30;99.90;;;;;;5025837;28;20210;-77
2021/04/24 01:02:22;;;;;;;14.70;8.00;;;6.30;99.90;;;;;;5025173;28;20207;-77
2021/04/24 01:04:48;;;;;;;14.73;8.27;;;6.30;99.90;;;;;;5036226;28;20221;-77
2021/04/24 01:07:15;;;;;;;13.47;8.73;;;6.20;99.90;;;;;;5045319;28;20209;-77
2021/04/24 01:09:42;;;;;;;13.77;7.90;;;6.20;99.90;;;;;;5035308;28;20226;-76
2021/04/24 01:12:09;;;;;;;17.83;8.47;;;6.20;99.90;;;;;;5024102;28;20202;-78
2021/04/24 01:14:35;;;;;;;14.33;7.97;;;6.10;99.90;;;;;;5024690;28;20237;-78
2021/04/24 01:17:01;;;;;;;19.80;8.63;;;6.10;99.90;;;;;;5025491;28;20223;-78
2021/04/24 01:19:28;;;;;;;12.33;8.10;;;6.10;99.90;;;;;;5024018;28;20207;-78
2021/04/24 01:22:04;;;;;;;13.83;8.60;;;6.10;99.90;;;;;;5024373;28;20238;-76
2021/04/24 01:24:31;;;;;;;12.33;9.00;;;6.00;99.90;;;;;;5024472;28;20199;-77
2021/04/24 01:26:57;;;;;;;10.67;7.63;;;6.00;99.90;;;;;;5036529;28;20198;-77
2021/04/24 01:29:24;;;;;;;13.87;8.27;;;6.00;99.90;;;;;;5044419;28;20586;-77
2021/04/24 01:31:50;;;;;;;15.83;8.90;;;6.00;99.90;;;;;;5044130;28;20201;-77
2021/04/24 01:34:17;;;;;;;17.53;10.17;;;6.00;99.90;;;;;;5029655;28;20912;-78
2021/04/24 01:36:43;;;;;;;13.30;8.43;;;5.90;99.90;;;;;;5024500;28;20257;-78
2021/04/24 01:39:10;;;;;;;13.73;8.73;;;5.90;99.90;;;;;;5024603;28;20206;-77
2021/04/24 01:41:37;;;;;;;15.83;8.73;;;5.90;99.90;;;;;;5037504;28;20259;-79
2021/04/24 01:44:03;;;;;;;16.30;8.80;;;5.90;99.90;;;;;;5044873;28;20206;-78
2021/04/24 01:46:30;;;;;;;20.77;8.13;;;5.90;99.90;;;;;;5043547;28;20665;-77
2021/04/24 01:48:56;;;;;;;17.73;8.93;;;5.90;99.90;;;;;;5043922;28;20465;-77
2021/04/24 01:51:23;;;;;;;17.27;8.93;;;5.80;99.90;;;;;;5033464;28;20214;-77
2021/04/24 01:53:50;;;;;;;16.07;9.00;;;5.80;99.90;;;;;;5023294;28;20594;-77
2021/04/24 01:56:17;;;;;;;14.73;8.67;;;5.80;99.90;;;;;;5023509;28;20644;-77
2021/04/24 01:58:44;;;;;;;16.37;8.70;;;5.80;99.90;;;;;;5026091;28;20194;-77
2021/04/24 02:01:12;;;;;;;19.47;8.80;;;5.80;99.90;;;;;;5041458;28;20552;-79
2021/04/24 02:03:39;;;;;;;16.07;9.00;;;5.90;99.90;;;;;;5043462;28;20209;-78
2021/04/24 02:06:06;;;;;;;15.33;8.87;;;5.80;99.90;;;;;;5040118;28;20202;-79
2021/04/24 02:08:35;;;;;;;15.70;9.50;;;5.90;99.90;;;;;;5023417;28;20980;-78
2021/04/24 02:11:02;;;;;;;17.87;9.03;;;5.90;99.90;;;;;;5024514;28;20211;-78
2021/04/24 02:13:33;;;;;;;18.33;8.97;;;6.00;99.90;;;;;;5024551;28;20207;-78
2021/04/24 02:15:59;;;;;;;19.40;8.97;;;5.90;99.90;;;;;;5023099;28;20206;-78
2021/04/24 02:18:26;;;;;;;17.43;9.47;;;6.00;99.90;;;;;;5023013;28;20499;-78
2021/04/24 02:20:52;;;;;;;15.33;8.97;;;6.00;99.90;;;;;;5022089;28;20238;-80
2021/04/24 02:23:20;;;;;;;14.13;8.20;;;5.90;99.90;;;;;;5023287;28;20210;-78
2021/04/24 02:25:47;;;;;;;19.67;9.30;;;5.90;99.90;;;;;;5022619;28;20821;-78
2021/04/24 02:28:15;;;;;;;18.50;8.50;;;5.90;99.90;;;;;;5023386;28;20256;-78
2021/04/24 02:30:43;;;;;;;15.70;8.60;;;5.90;99.90;;;;;;5022931;28;20290;-79
2021/04/24 02:33:10;;;;;;;16.57;8.80;;;5.90;99.90;;;;;;5022864;28;20210;-77
2021/04/24 02:35:43;;;;;;;15.00;9.40;;;6.00;99.90;;;;;;5022639;28;20206;-77
2021/04/24 02:38:09;;;;;;;12.97;7.90;;;6.00;99.90;;;;;;5023278;28;20594;-79
2021/04/24 02:40:36;;;;;;;14.27;8.23;;;6.00;99.90;;;;;;5023519;28;20232;-79
2021/04/24 02:43:02;;;;;;;14.57;8.47;;;6.00;99.90;;;;;;5022987;28;20210;-78
2021/04/24 02:45:29;;;;;;;13.83;8.77;;;6.00;99.90;;;;;;5022859;28;20661;-77
2021/04/24 02:47:56;;;;;;;22.33;8.97;;;6.00;99.90;;;;;;5023040;28;20920;-77
2021/04/24 02:50:22;;;;;;;14.47;8.37;;;6.00;99.90;;;;;;5022104;28;20268;-77
2021/04/24 02:52:49;;;;;;;15.43;8.03;;;6.00;99.90;;;;;;5022600;28;20205;-78
2021/04/24 02:55:17;;;;;;;15.80;8.93;;;5.90;99.90;;;;;;5022684;28;20317;-79
2021/04/24 02:57:45;;;;;;;14.13;7.67;;;5.90;99.90;;;;;;5021817;28;20203;-77
2021/04/24 03:00:14;;;;;;;14.47;8.10;;;5.90;99.90;;;;;;5023246;28;20273;-76
2021/04/24 03:02:41;;;;;;;16.13;8.33;;;5.80;99.90;;;;;;5022541;28;20593;-78
2021/04/24 03:05:10;;;;;;;13.77;7.40;;;5.80;99.90;;;;;;5022453;28;20265;-76
2021/04/24 03:07:36;;;;;;;14.57;8.70;;;5.80;99.90;;;;;;5022401;28;20214;-77
2021/04/24 03:10:04;;;;;;;13.43;7.17;;;5.80;99.90;;;;;;5022499;28;20451;-78
2021/04/24 03:12:30;;;;;;;12.60;7.70;;;5.80;99.90;;;;;;5022926;28;20211;-78
2021/04/24 03:14:57;;;;;;;14.90;7.70;;;5.80;99.90;;;;;;5022537;28;20234;-77
2021/04/24 03:17:23;;;;;;;11.87;7.70;;;5.80;99.90;;;;;;5021934;28;20219;-78
2021/04/24 03:19:49;;;;;;;14.23;7.20;;;5.70;99.90;;;;;;5022574;28;20202;-78
2021/04/24 03:22:17;;;;;;;11.43;7.07;;;5.70;99.90;;;;;;5022827;28;20238;-78
2021/04/24 03:24:43;;;;;;;10.90;6.47;;;5.70;99.90;;;;;;5021733;28;20530;-77
2021/04/24 03:27:09;;;;;;;10.90;6.83;;;5.60;99.90;;;;;;5022487;28;20202;-78
2021/04/24 03:29:35;;;;;;;10.97;6.80;;;5.60;99.90;;;;;;5022685;28;20458;-77
2021/04/24 03:32:02;;;;;;;12.73;6.87;;;5.60;99.90;;;;;;5021736;28;20191;-78
2021/04/24 03:34:28;;;;;;;11.53;7.00;;;5.50;99.90;;;;;;5021984;28;20210;-78
2021/04/24 03:36:54;;;;;;;9.83;6.43;;;5.50;99.90;;;;;;5022399;28;20206;-77
2021/04/24 03:39:22;;;;;;;12.73;7.60;;;5.40;99.90;;;;;;5021250;28;20195;-78
2021/04/24 03:41:48;;;;;;;9.67;6.13;;;5.40;99.90;;;;;;5022274;28;20739;-77
2021/04/24 03:44:14;;;;;;;8.47;6.20;;;5.40;99.90;;;;;;5022045;28;20233;-78
2021/04/24 03:46:41;;;;;;;10.73;6.50;;;5.30;99.90;;;;;;5021441;28;20213;-77
2021/04/24 03:49:07;;;;;;;12.13;6.37;;;5.30;99.90;;;;;;5021881;28;20229;-77
2021/04/24 03:51:33;;;;;;;8.10;6.07;;;5.20;99.90;;;;;;5021867;28;20214;-78
2021/04/24 03:53:59;;;;;;;9.50;5.60;;;5.20;99.90;;;;;;5021776;28;20200;-79
2021/04/24 03:56:27;;;;;;;8.80;6.60;;;5.10;99.90;;;;;;5022528;28;20221;-78
2021/04/24 03:58:53;;;;;;;10.03;6.77;;;5.10;99.90;;;;;;5022281;28;20548;-78
2021/04/24 04:01:19;;;;;;;11.30;6.27;;;5.00;99.90;;;;;;5020894;28;20268;-79
2021/04/24 04:03:45;;;;;;;10.27;6.80;;;5.00;99.90;;;;;;5021655;28;20194;-78
2021/04/24 04:06:12;;;;;;;11.63;6.00;;;5.00;99.90;;;;;;5022507;28;20248;-78
2021/04/24 04:08:38;;;;;;;9.00;5.67;;;4.90;99.90;;;;;;5021225;28;20229;-78
2021/04/24 04:11:04;;;;;;;9.80;6.67;;;4.90;99.90;;;;;;5021804;28;20197;-78
2021/04/24 04:13:31;;;;;;;17.33;8.93;;;4.90;99.90;;;;;;5022044;28;20206;-76
2021/04/24 04:15:58;;;;;;;15.80;8.10;;;4.80;99.90;;;;;;5021379;28;20213;-78
2021/04/24 04:18:25;;;;;;;14.60;8.73;;;4.80;99.90;;;;;;5022119;28;20337;-77
2021/04/24 04:20:53;;;;;;;13.10;7.97;;;4.80;99.90;;;;;;5021155;28;20241;-77
2021/04/24 04:23:20;;;;;;;11.00;7.20;;;4.70;99.90;;;;;;5040660;28;20206;-77
2021/04/24 04:25:47;;;;;;;12.83;8.77;;;4.70;99.90;;;;;;5045766;28;20594;-77
2021/04/24 04:28:14;;;;;;;11.20;7.60;;;4.60;99.90;;;;;;5025648;28;20234;-78
2021/04/24 04:30:42;;;;;;;12.17;7.83;;;4.60;99.90;;;;;;5025946;28;20214;-77
2021/04/24 04:33:09;;;;;;;13.83;7.27;;;4.60;99.90;;;;;;5026179;28;20504;-78
2021/04/24 04:35:37;;;;;;;13.50;8.37;;;4.60;99.90;;;;;;5025264;28;20700;-76
2021/04/24 04:38:04;;;;;;;10.73;6.73;;;4.60;99.90;;;;;;5026173;28;20202;-77
2021/04/24 04:40:31;;;;;;;11.80;7.67;;;4.60;99.90;;;;;;5025475;28;20218;-77
2021/04/24 04:42:57;;;;;;;13.30;7.33;;;4.70;99.90;;;;;;5024838;28;20214;-78
2021/04/24 04:45:24;;;;;;;10.60;7.60;;;4.70;99.90;;;;;;5025261;28;20206;-77
2021/04/24 04:47:52;;;;;;;11.67;7.80;;;4.70;99.90;;;;;;5025474;28;20216;-77
2021/04/24 04:50:21;;;;;;;10.57;7.17;;;4.70;99.90;;;;;;5025348;28;20367;-78
2021/04/24 04:52:48;;;;;;;12.77;7.93;;;4.80;99.90;;;;;;5025565;28;20206;-77
2021/04/24 04:55:15;;;;;;;14.73;7.60;;;4.80;99.90;;;;;;5024474;28;20207;-76
2021/04/24 04:57:42;;;;;;;12.00;7.63;;;4.80;99.90;;;;;;5024617;28;20881;-78
2021/04/24 05:00:10;;;;;;;12.70;7.57;;;4.90;99.90;;;;;;5026170;28;20209;-77
2021/04/24 05:02:37;;;;;;;12.47;8.23;;;4.90;99.90;;;;;;5024724;28;20261;-77
2021/04/24 05:05:05;;;;;;;11.53;7.50;;;4.90;99.90;;;;;;5025515;28;20206;-77
2021/04/24 05:07:31;;;;;;;16.13;8.77;;;5.00;99.90;;;;;;5025610;28;20271;-78
2021/04/24 05:09:57;;;;;;;19.33;9.77;;;5.00;99.90;;;;;;5024915;28;20234;-77
2021/04/24 05:12:24;;;;;;;13.57;8.00;;;5.10;99.90;;;;;;5024289;28;20220;-78
2021/04/24 05:14:50;;;;;;;15.73;9.20;;;5.10;99.90;;;;;;5024441;28;20206;-79
2021/04/24 05:17:16;;;;;;;13.33;8.03;;;5.10;99.90;;;;;;5024936;28;20234;-77
2021/04/24 05:19:43;;;;;;;15.20;9.57;;;5.20;99.90;;;;;;5024838;28;20256;-77
2021/04/24 05:22:10;;;;;;;15.07;8.37;;;5.20;99.90;;;;;;5024751;28;20234;-77
2021/04/24 05:24:37;;;;;;;14.83;8.97;;;5.30;99.90;;;;;;5023887;28;20199;-78
2021/04/24 05:27:03;;;;;;;16.47;9.40;;;5.30;99.90;;;;;;5036839;28;20622;-78
2021/04/24 05:29:29;;;;;;;13.17;8.20;;;5.40;99.90;;;;;;5041847;28;20232;-77
2021/04/24 05:31:56;;;;;;;12.60;7.47;;;5.40;99.90;;;;;;5023535;28;20543;-77
2021/04/24 05:34:22;;;;;;;14.97;8.20;;;5.50;99.90;;;;;;5024063;28;20233;-78
2021/04/24 05:36:48;;;;;;;15.67;9.33;;;5.60;99.90;;;;;;5024052;28;20214;-79
2021/04/24 05:39:16;;;;;;;16.60;9.07;;;5.70;99.90;;;;;;5023108;28;20812;-78
2021/04/24 05:41:42;;;;;;;14.93;8.60;;;5.70;99.90;;;;;;5024347;28;20262;-77
2021/04/24 05:44:08;;;;;;;18.43;9.10;;;5.80;99.90;;;;;;5024464;28;20202;-78
2021/04/24 05:46:35;;;;;;;15.77;8.70;;;5.90;99.90;;;;;;5022846;28;20277;-79
2021/04/24 05:49:01;;;;;;;17.43;9.70;;;6.00;99.90;;;;;;5023521;28;20223;-78
2021/04/24 05:51:28;;;;;;;15.17;9.60;;;6.10;99.90;;;;;;5023741;28;20203;-77
2021/04/24 05:53:54;;;;;;;14.73;9.50;;;6.10;99.90;;;;;;5023403;28;20214;-78
2021/04/24 05:56:22;;;;;;;13.87;8.40;;;6.30;99.90;;;;;;5024757;28;20666;-78
2021/04/24 05:58:50;;;;;;;14.57;9.47;;;6.30;99.90;;;;;;5022276;28;20677;-77
2021/04/24 06:01:17;;;;;;;13.87;8.90;;;6.40;99.90;;;;;;5023094;28;20314;-78
2021/04/24 06:03:43;;;;;;;15.37;8.83;;;6.50;99.90;;;;;;5022966;28;20605;-78
2021/04/24 06:06:10;;;;;;;13.33;8.30;;;6.50;99.90;;;;;;5023426;28;20313;-78
2021/04/24 06:08:37;;;;;;;13.40;9.10;;;6.60;99.90;;;;;;5023996;28;20257;-78
2021/04/24 06:11:03;;;;;;;13.67;9.33;;;6.70;99.90;;;;;;5023658;28;20206;-79
2021/04/24 06:13:30;;;;;;;13.70;9.57;;;6.80;99.90;;;;;;5022454;28;20206;-79
2021/04/24 06:15:57;;;;;;;12.33;8.70;;;6.90;99.90;;;;;;5022922;28;20670;-78
2021/04/24 06:18:24;;;;;;;14.97;9.37;;;7.00;99.90;;;;;;5023222;28;20238;-78
2021/04/24 06:20:50;;;;;;;16.03;9.43;;;7.10;99.90;;;;;;5022935;28;20238;-79
2021/04/24 06:23:17;;;;;;;16.03;7.97;;;7.30;99.90;;;;;;5023374;28;20584;-78
2021/04/24 06:25:43;;;;;;;13.83;8.93;;;7.40;99.90;;;;;;5024074;28;20265;-78
2021/04/24 06:28:10;;;;;;;15.03;8.67;;;7.50;99.90;;;;;;5022864;28;20190;-78
2021/04/24 06:30:38;;;;;;;15.47;8.47;;;7.60;99.90;;;;;;5023495;28;20657;-79
2021/04/24 06:33:05;;;;;;;14.90;8.60;;;7.70;99.90;;;;;;5022993;28;20209;-79
2021/04/24 06:35:32;;;;;;;14.13;8.33;;;7.90;99.90;;;;;;5022388;28;20195;-79
2021/04/24 06:37:58;;;;;;;13.47;7.63;;;7.90;99.90;;;;;;5022760;28;20245;-78
2021/04/24 06:40:26;;;;;;;13.93;7.60;;;8.10;99.90;;;;;;5023222;28;21213;-79
2021/04/24 06:42:52;;;;;;;16.03;8.47;;;8.30;99.90;;;;;;5022413;28;20209;-78
2021/04/24 06:45:19;;;;;;;11.30;7.43;;;8.40;99.90;;;;;;5022959;28;20299;-77
2021/04/24 06:47:48;;;;;;;13.00;8.30;;;8.60;99.90;;;;;;5022734;28;20245;-77
2021/04/24 06:50:15;;;;;;;11.83;6.60;;;8.80;99.90;;;;;;5029012;28;20721;-77
2021/04/24 06:52:42;;;;;;;10.43;6.93;;;9.10;99.90;;;;;;5043057;28;20213;-77
2021/04/24 06:55:10;;;;;;;10.20;6.73;;;9.30;99.90;;;;;;5042391;28;20598;-78
2021/04/24 06:57:36;;;;;;;13.10;6.60;;;9.50;99.90;;;;;;5042230;28;20209;-78
2021/04/24 07:00:04;;;;;;;10.50;6.87;;;9.60;99.90;;;;;;5036781;28;20194;-78
2021/04/24 07:02:30;;;;;;;14.90;7.63;;;9.70;99.90;;;;;;5021612;28;20229;-78
2021/04/24 07:04:57;;;;;;;10.30;6.60;;;9.90;99.90;;;;;;5022406;28;20203;-78
2021/04/24 07:07:23;;;;;;;9.00;6.53;;;10.00;99.90;;;;;;5022594;28;20202;-78
2021/04/24 07:09:50;;;;;;;8.77;6.97;;;10.10;99.90;;;;;;5021941;28;20801;-78
2021/04/24 07:12:16;;;;;;;15.23;9.13;;;10.20;99.90;;;;;;5021449;28;20820;-78
2021/04/24 07:14:42;;;;;;;9.27;6.73;;;10.30;99.90;;;;;;5022273;28;20202;-78
2021/04/24 07:17:08;;;;;;;10.77;6.90;;;10.30;99.90;;;;;;5021644;28;20227;-77
2021/04/24 07:19:35;;;;;;;12.10;7.43;;;10.50;99.90;;;;;;5021695;28;20630;-77
2021/04/24 07:22:03;;;;;;;9.47;6.57;;;10.60;99.90;;;;;;4999320;28;20230;-76
2021/04/24 07:24:29;;;;;;;11.87;6.30;;;10.60;99.90;;;;;;5021309;28;20273;-76
2021/04/24 07:26:55;;;;;;;11.37;7.00;;;10.60;99.90;;;;;;5021977;28;20253;-76
2021/04/24 07:29:22;;;;;;;11.60;7.27;;;10.50;99.90;;;;;;5021559;28;20235;-76
2021/04/24 07:31:48;;;;;;;15.23;7.63;;;10.50;99.90;;;;;;5021693;28;20240;-76
2021/04/24 07:34:14;;;;;;;15.77;7.70;;;10.40;99.90;;;;;;5022145;28;20209;-77
2021/04/24 07:36:41;;;;;;;13.23;7.47;;;10.60;99.90;;;;;;5017385;28;20221;-76
2021/04/24 07:39:08;;;;;;;9.00;6.10;;;10.80;99.90;;;;;;5022013;28;20282;-77
2021/04/24 07:41:34;;;;;;;8.83;6.53;;;10.90;99.90;;;;;;5021745;28;20203;-76
2021/04/24 07:44:01;;;;;;;7.70;6.10;;;11.00;99.90;;;;;;5027035;28;20206;-77
2021/04/24 07:46:27;;;;;;;11.03;6.60;;;11.00;99.90;;;;;;5023952;28;20218;-76
2021/04/24 07:48:53;;;;;;;8.60;5.60;;;11.40;99.90;;;;;;5021444;28;20286;-76
2021/04/24 07:51:20;;;;;;;11.83;6.27;;;11.80;99.90;;;;;;5022092;28;20229;-77
2021/04/24 07:53:46;;;;;;;9.00;6.50;;;12.00;99.90;;;;;;5021983;28;20661;-77
2021/04/24 07:56:13;;;;;;;10.57;6.37;;;12.00;99.90;;;;;;5032859;28;20371;-77
2021/04/24 07:58:40;;;;;;;10.17;6.40;;;12.40;99.90;;;;;;5040189;28;20193;-75
2021/04/24 08:01:06;;;;;;;9.33;5.80;;;12.60;99.90;;;;;;5030696;28;20272;-78
2021/04/24 08:03:32;;;;;;;8.20;4.80;;;12.40;99.90;;;;;;5021431;28;20222;-78
2021/04/24 08:05:58;;;;;;;9.30;5.07;;;12.10;99.90;;;;;;5021657;28;20202;-78
2021/04/24 08:08:25;;;;;;;6.67;4.07;;;11.90;99.90;;;;;;5021933;28;20225;-79
2021/04/24 08:10:51;;;;;;;9.10;4.97;;;11.70;99.90;;;;;;5021352;28;20198;-78
2021/04/24 08:13:19;;;;;;;9.47;5.00;;;11.60;99.90;;;;;;5020074;28;20899;-78
2021/04/24 08:15:45;;;;;;;10.47;5.97;;;11.80;99.90;;;;;;5021635;28;20284;-78
2021/04/24 08:18:11;;;;;;;7.37;5.70;;;12.10;99.90;;;;;;5021332;28;20231;-78
2021/04/24 08:20:37;;;;;;;8.20;5.60;;;12.30;99.90;;;;;;5019778;28;20658;-78
2021/04/24 08:23:04;;;;;;;6.03;4.77;;;12.50;99.90;;;;;;5021973;28;20256;-78
2021/04/24 08:25:31;;;;;;;8.90;5.37;;;12.60;99.90;;;;;;5041053;28;20645;-78
2021/04/24 08:27:57;;;;;;;8.03;5.03;;;12.40;99.90;;;;;;5039689;28;20231;-78
2021/04/24 08:30:26;;;;;;;9.43;5.90;;;12.40;99.90;;;;;;5040749;28;20275;-79
2021/04/24 08:32:53;;;;;;;10.57;5.73;;;12.40;99.90;;;;;;5040957;28;20244;-78
2021/04/24 08:35:19;;;;;;;8.93;6.13;;;12.80;99.90;;;;;;5021338;28;20214;-78
2021/04/24 08:37:46;;;;;;;8.07;6.03;;;13.10;99.90;;;;;;5021014;28;20276;-79
2021/04/24 08:40:14;;;;;;;6.43;5.10;;;13.30;99.90;;;;;;5021934;28;20203;-79
2021/04/24 08:42:41;;;;;;;9.40;5.17;;;13.40;99.90;;;;;;5021167;28;20214;-79
2021/04/24 08:45:16;;;;;;;7.27;5.70;;;13.60;99.90;;;;;;5020861;28;20213;-80
2021/04/24 08:47:47;;;;;;;8.77;5.13;;;13.80;99.90;;;;;;5021224;28;20268;-78
2021/04/24 08:50:19;;;;;;;8.97;5.83;;;13.80;99.90;;;;;;5021153;28;20218;-78
2021/04/24 08:52:45;;;;;;;9.63;4.97;;;13.90;99.90;;;;;;5020960;28;20614;-79
2021/04/24 08:55:17;;;;;;;6.83;5.53;;;13.80;99.90;;;;;;5019916;28;20199;-78
2021/04/24 08:57:44;;;;;;;7.53;5.87;;;13.90;99.90;;;;;;5020814;28;20199;-78
2021/04/24 09:00:12;;;;;;;8.50;5.53;;;13.80;99.90;;;;;;5021338;28;20217;-79
2021/04/24 09:02:41;;;;;;;7.93;5.60;;;13.70;99.90;;;;;;5020042;28;20203;-79
2021/04/24 09:05:10;;;;;;;6.23;5.03;;;13.70;99.90;;;;;;5020642;28;20639;-78
2021/04/24 09:07:37;;;;;;;9.03;5.33;;;13.90;99.90;;;;;;5020938;28;20210;-77
2021/04/24 09:10:05;;;;;;;7.77;5.30;;;14.00;99.90;;;;;;5022489;28;20313;-78
2021/04/24 09:12:35;;;;;;;7.40;4.50;;;14.20;99.90;;;;;;5024473;28;20618;-78
2021/04/24 09:15:10;;;;;;;7.57;5.83;;;14.30;99.90;;;;;;5024920;28;20290;-77
2021/04/24 09:17:55;;;;;;;8.03;5.27;;;14.30;99.90;;;;;;5023664;28;20226;-77
2021/04/24 09:20:24;;;;;;;8.13;4.67;;;14.10;99.90;;;;;;5024708;28;20203;-77
2021/04/24 09:23:03;;;;;;;7.03;5.20;;;13.90;99.90;;;;;;5023725;28;20241;-77
2021/04/24 09:25:41;;;;;;;7.30;4.30;;;13.90;99.90;;;;;;5024237;28;20219;-76
2021/04/24 09:28:10;;;;;;;7.43;4.50;;;13.90;99.90;;;;;;5045405;28;20572;-77
2021/04/24 09:30:39;;;;;;;5.93;4.23;;;13.70;99.90;;;;;;5034158;28;20242;-75
2021/04/24 09:33:08;;;;;;;9.03;4.47;;;13.60;99.90;;;;;;5024108;28;20225;-75
2021/04/24 09:35:41;;;;;;;8.70;4.10;;;13.70;99.90;;;;;;5024856;28;20264;-75
2021/04/24 09:38:09;;;;;;;7.57;4.17;;;13.70;99.90;;;;;;5033741;28;20220;-75
2021/04/24 09:40:35;;;;;;;6.67;5.13;;;13.70;99.90;;;;;;5042410;28;20961;-75
2021/04/24 09:43:04;;;;;;;5.63;4.20;;;13.80;99.90;;;;;;5043154;28;20811;-75
2021/04/24 09:45:33;;;;;;;5.37;4.07;;;13.70;99.90;;;;;;5023358;28;20210;-75
2021/04/24 09:48:00;;;;;;;5.97;3.87;;;13.60;99.90;;;;;;5024155;28;20225;-76
2021/04/24 09:50:33;;;;;;;5.80;3.87;;;13.50;99.90;;;;;;5023430;28;20807;-75
2021/04/24 09:53:17;;;;;;;9.60;4.87;;;13.50;99.90;;;;;;5024781;28;20206;-75
2021/04/24 09:55:45;;;;;;;5.50;4.03;;;13.40;99.90;;;;;;5024800;28;20206;-76
2021/04/24 09:58:30;;;;;;;7.53;4.13;;;13.50;99.90;;;;;;5023858;28;20199;-76
2021/04/24 10:00:58;;;;;;;6.43;3.97;;;13.60;99.90;;;;;;5023765;28;20206;-77
2021/04/24 10:03:38;;;;;;;4.77;4.10;;;13.80;99.90;;;;;;5023514;28;20529;-76
2021/04/24 10:06:27;;;;;;;6.37;4.40;;;13.90;99.90;;;;;;5023430;28;20656;-75
2021/04/24 10:09:29;;;;;;;7.20;4.50;;;14.00;99.90;;;;;;5023490;28;20527;-75
2021/04/24 10:12:11;;;;;;;6.60;4.17;;;14.00;99.90;;;;;;5024290;28;20653;-75
2021/04/24 10:14:40;;;;;;;7.60;4.40;;;13.90;99.90;;;;;;5023246;28;20466;-75
2021/04/24 10:17:07;;;;;;;5.20;3.77;;;14.20;99.90;;;;;;5024622;28;20234;-75
2021/04/24 10:19:35;;;;;;;5.60;4.00;;;14.40;99.90;;;;;;5022923;28;20198;-77
2021/04/24 10:22:03;;;;;;;6.80;3.90;;;14.30;99.90;;;;;;5022672;28;20343;-76
2021/04/24 10:24:31;;;;;;;6.40;3.53;;;14.30;99.90;;;;;;5023480;28;20195;-77
2021/04/24 10:26:58;;;;;;;6.50;3.63;;;14.30;99.90;;;;;;5022932;28;20285;-77
2021/04/24 10:29:24;;;;;;;5.33;3.47;;;14.30;99.90;;;;;;5023503;28;20226;-77
2021/04/24 10:31:52;;;;;;;3.57;3.00;;;14.20;99.90;;;;;;5023447;28;20721;-76
2021/04/24 10:34:19;;;;;;;3.63;2.60;;;14.00;99.90;;;;;;5023646;28;20215;-76
2021/04/24 10:36:46;;;;;;;3.07;2.67;;;13.80;99.90;;;;;;5023236;28;20197;-76
2021/04/24 10:39:19;;;;;;;4.73;2.73;;;13.80;99.90;;;;;;5023833;28;20842;-77
2021/04/24 10:41:55;;;;;;;6.00;3.23;;;13.70;99.90;;;;;;5035496;28;20205;-77
2021/04/24 10:44:23;;;;;;;5.33;3.20;;;13.70;99.90;;;;;;5043084;28;20253;-76
2021/04/24 10:46:51;;;;;;;5.37;3.60;;;13.70;99.90;;;;;;5043229;28;20565;-76
2021/04/24 10:49:23;;;;;;;4.63;2.90;;;13.80;99.90;;;;;;5041062;28;20226;-76
2021/04/24 10:52:00;;;;;;;4.90;2.83;;;13.80;99.90;;;;;;5028581;28;20221;-77
2021/04/24 10:54:29;;;;;;;2.77;2.50;;;13.80;99.90;;;;;;5022618;28;20256;-77
2021/04/24 10:56:57;;;;;;;5.47;2.93;;;13.70;99.90;;;;;;5022480;28;20199;-77
2021/04/24 10:59:25;;;;;;;4.87;3.00;;;13.70;99.90;;;;;;5022618;28;20199;-77
2021/04/24 11:02:06;;;;;;;6.47;3.20;;;13.70;99.90;;;;;;5039216;28;20215;-77
2021/04/24 11:04:47;;;;;;;5.90;3.10;;;13.70;99.90;;;;;;5047502;28;20209;-77
2021/04/24 11:07:26;;;;;;;4.20;2.60;;;13.70;99.90;;;;;;5062443;28;20494;-76
2021/04/24 11:10:24;;;;;;;5.23;3.27;;;13.50;99.90;;;;;;5061658;28;20220;-77
2021/04/24 11:12:52;;;;;;;5.53;3.20;;;13.30;99.90;;;;;;5039390;28;20249;-77
2021/04/24 11:15:20;;;;;;;4.27;2.43;;;13.40;99.90;;;;;;5021432;28;20218;-77
2021/04/24 11:17:47;;;;;;;4.30;2.53;;;13.50;99.90;;;;;;5021758;28;20223;-77
2021/04/24 11:20:48;;;;;;;3.77;2.47;;;13.30;99.90;;;;;;5021988;28;20591;-76
2021/04/24 11:23:43;;;;;;;5.13;2.60;;;13.50;99.90;;;;;;5022365;28;20211;-77
2021/04/24 11:26:12;;;;;;;5.47;3.10;;;13.60;99.90;;;;;;5021842;28;20476;-76
2021/04/24 11:29:15;;;;;;;4.73;2.73;;;13.70;99.90;;;;;;5022258;28;20613;-77
2021/04/24 11:32:10;;;;;;;4.93;2.90;;;13.70;99.90;;;;;;5021548;28;20226;-76
2021/04/24 11:34:45;;;;;;;5.43;3.50;;;13.70;99.90;;;;;;5021309;28;20881;-76
2021/04/24 11:37:35;;;;;;;5.10;2.67;;;13.80;99.90;;;;;;5021829;28;20206;-78
2021/04/24 11:40:32;;;;;;;8.00;2.70;;;13.70;99.90;;;;;;5021951;28;20281;-76
2021/04/24 11:43:10;;;;;;;5.03;3.10;;;13.50;99.90;;;;;;5021853;28;20221;-77
2021/04/24 11:45:58;;;;;;;6.13;2.43;;;13.40;99.90;;;;;;5020771;28;20326;-77
2021/04/24 11:48:57;;;;;;;8.00;2.67;;;13.30;99.90;;;;;;5021770;28;20203;-76
2021/04/24 11:51:51;;;;;;;5.83;2.87;;;13.20;99.90;;;;;;5018714;28;20213;-75
2021/04/24 11:54:26;;;;;;;6.20;3.07;;;13.10;99.90;;;;;;5020179;28;20213;-77
2021/04/24 11:56:53;;;;;;;7.97;3.20;;;13.20;99.90;;;;;;5021200;28;20613;-76
2021/04/24 11:59:21;;;;;;;6.60;3.50;;;13.30;99.90;;;;;;5020631;28;20203;-77
2021/04/24 12:01:48;;;;;;;6.27;3.23;;;13.30;99.90;;;;;;5021327;28;20210;-77
2021/04/24 12:04:25;;;;;;;5.27;2.63;;;13.40;99.90;;;;;;5033342;28;20205;-76
2021/04/24 12:07:01;;;;;;;8.53;3.37;;;13.60;99.90;;;;;;5033572;28;20815;-76
2021/04/24 12:09:27;;;;;;;7.97;3.40;;;13.50;99.90;;;;;;5040306;28;20229;-75
2021/04/24 12:11:56;;;;;;;7.37;3.37;;;13.40;99.90;;;;;;5021102;28;20214;-76
2021/04/24 12:14:23;;;;;;;7.23;3.53;;;13.30;99.90;;;;;;5019916;28;20297;-77
2021/04/24 12:16:51;;;;;;;8.17;2.90;;;13.30;99.90;;;;;;5020218;28;20261;-76
2021/04/24 12:19:23;;;;;;;6.00;3.23;;;13.30;99.90;;;;;;5020226;28;20213;-75
2021/04/24 12:22:08;;;;;;;8.43;3.20;;;13.40;99.90;;;;;;5021074;28;20257;-78
2021/04/24 12:24:35;;;;;;;7.93;5.30;;;13.40;99.90;;;;;;5020498;28;20206;-76
2021/04/24 12:27:23;;;;;;;7.67;3.70;;;13.50;99.90;;;;;;5020556;28;20250;-77
2021/04/24 12:29:51;;;;;;;7.70;4.00;;;13.70;99.90;;;;;;5020890;28;20231;-77
2021/04/24 12:32:19;;;;;;;6.03;3.37;;;13.80;99.90;;;;;;5021820;28;20210;-75
2021/04/24 12:34:45;;;;;;;9.00;3.83;;;13.80;99.90;;;;;;5019975;28;20202;-75
2021/04/24 12:37:14;;;;;;;7.13;3.63;;;13.90;99.90;;;;;;5021404;28;20210;-77
2021/04/24 12:39:41;;;;;;;7.77;3.33;;;13.90;99.90;;;;;;5020484;28;20210;-76
2021/04/24 12:42:10;;;;;;;7.23;3.03;;;14.00;99.90;;;;;;5021601;28;20203;-76
2021/04/24 12:44:37;;;;;;;7.57;2.90;;;14.10;99.90;;;;;;5021869;28;20293;-77
2021/04/24 12:47:04;;;;;;;7.40;3.67;;;14.10;99.90;;;;;;5024557;28;20232;-77
2021/04/24 12:49:31;;;;;;;5.77;3.37;;;14.20;99.90;;;;;;5025029;28;20920;-77
2021/04/24 12:52:06;;;;;;;6.40;3.33;;;14.30;99.90;;;;;;5024422;28;20199;-75
2021/04/24 12:54:33;;;;;;;4.63;3.17;;;14.30;99.90;;;;;;5023371;28;20653;-77